sensor_id;sensor_type;location;lat;lon;timestamp;P1;durP1;ratioP1;P2;durP2;ratioP2
33108;SDS011;19481;51.118;6.940;2023-09-18T00:00:18;1.95;;;1.20;;
33108;SDS011;19481;51.118;6.940;2023-09-18T00:05:21;2.08;;;1.27;;
33108;SDS011;19481;51.118;6.940;2023-09-18T00:10:25;1.20;;;1.10;;
33108;SDS011;19481;51.118;6.940;2023-09-18T00:15:30;2.65;;;1.10;;
33108;SDS011;19481;51.118;6.940;2023-09-18T00:20:32;1.48;;;1.35;;
33108;SDS011;19481;51.118;6.940;2023-09-18T00:25:35;2.30;;;1.80;;
33108;SDS011;19481;51.118;6.940;2023-09-18T00:30:37;1.00;;;1.00;;
33108;SDS011;19481;51.118;6.940;2023-09-18T00:35:39;1.65;;;1.25;;
33108;SDS011;19481;51.118;6.940;2023-09-18T00:40:42;1.20;;;1.10;;
33108;SDS011;19481;51.118;6.940;2023-09-18T00:45:44;1.80;;;1.20;;
33108;SDS011;19481;51.118;6.940;2023-09-18T00:50:48;1.15;;;1.05;;
33108;SDS011;19481;51.118;6.940;2023-09-18T00:55:51;2.55;;;0.98;;
33108;SDS011;19481;51.118;6.940;2023-09-18T01:00:55;1.70;;;1.30;;
33108;SDS011;19481;51.118;6.940;2023-09-18T01:05:56;1.05;;;0.90;;
33108;SDS011;19481;51.118;6.940;2023-09-18T01:11:03;1.45;;;1.20;;
33108;SDS011;19481;51.118;6.940;2023-09-18T01:16:10;1.27;;;1.17;;
33108;SDS011;19481;51.118;6.940;2023-09-18T01:21:18;1.20;;;1.02;;
33108;SDS011;19481;51.118;6.940;2023-09-18T01:26:22;1.67;;;1.20;;
33108;SDS011;19481;51.118;6.940;2023-09-18T01:31:23;2.53;;;1.38;;
33108;SDS011;19481;51.118;6.940;2023-09-18T01:36:26;1.60;;;1.40;;
33108;SDS011;19481;51.118;6.940;2023-09-18T01:41:29;1.52;;;0.98;;
33108;SDS011;19481;51.118;6.940;2023-09-18T01:46:31;0.98;;;0.90;;
33108;SDS011;19481;51.118;6.940;2023-09-18T01:51:37;1.67;;;1.10;;
33108;SDS011;19481;51.118;6.940;2023-09-18T01:56:40;3.92;;;1.30;;
33108;SDS011;19481;51.118;6.940;2023-09-18T02:01:41;1.40;;;1.20;;
33108;SDS011;19481;51.118;6.940;2023-09-18T02:06:43;1.10;;;1.00;;
33108;SDS011;19481;51.118;6.940;2023-09-18T02:11:47;3.30;;;1.10;;
33108;SDS011;19481;51.118;6.940;2023-09-18T02:16:48;1.10;;;1.00;;
33108;SDS011;19481;51.118;6.940;2023-09-18T02:21:51;0.82;;;0.82;;
33108;SDS011;19481;51.118;6.940;2023-09-18T02:26:54;1.92;;;1.25;;
33108;SDS011;19481;51.118;6.940;2023-09-18T02:31:56;2.38;;;1.38;;
33108;SDS011;19481;51.118;6.940;2023-09-18T02:36:57;1.52;;;1.20;;
33108;SDS011;19481;51.118;6.940;2023-09-18T02:42:00;2.25;;;1.27;;
33108;SDS011;19481;51.118;6.940;2023-09-18T02:47:02;1.20;;;1.10;;
33108;SDS011;19481;51.118;6.940;2023-09-18T02:52:04;1.27;;;1.00;;
33108;SDS011;19481;51.118;6.940;2023-09-18T02:57:07;1.45;;;1.10;;
33108;SDS011;19481;51.118;6.940;2023-09-18T03:02:09;2.70;;;1.00;;
33108;SDS011;19481;51.118;6.940;2023-09-18T03:07:12;1.58;;;1.45;;
33108;SDS011;19481;51.118;6.940;2023-09-18T03:12:15;0.75;;;0.70;;
33108;SDS011;19481;51.118;6.940;2023-09-18T03:17:16;0.82;;;0.77;;
33108;SDS011;19481;51.118;6.940;2023-09-18T03:22:18;0.90;;;0.90;;
33108;SDS011;19481;51.118;6.940;2023-09-18T03:27:21;0.90;;;0.90;;
33108;SDS011;19481;51.118;6.940;2023-09-18T03:32:28;1.02;;;0.98;;
33108;SDS011;19481;51.118;6.940;2023-09-18T03:37:30;1.25;;;1.15;;
33108;SDS011;19481;51.118;6.940;2023-09-18T03:42:33;1.42;;;1.13;;
33108;SDS011;19481;51.118;6.940;2023-09-18T03:47:35;0.82;;;0.82;;
33108;SDS011;19481;51.118;6.940;2023-09-18T03:52:37;1.35;;;1.25;;
33108;SDS011;19481;51.118;6.940;2023-09-18T03:57:41;1.00;;;0.82;;
33108;SDS011;19481;51.118;6.940;2023-09-18T04:02:43;1.23;;;1.02;;
33108;SDS011;19481;51.118;6.940;2023-09-18T04:07:45;0.90;;;0.90;;
33108;SDS011;19481;51.118;6.940;2023-09-18T04:12:48;1.55;;;0.90;;
33108;SDS011;19481;51.118;6.940;2023-09-18T04:17:51;0.82;;;0.80;;
33108;SDS011;19481;51.118;6.940;2023-09-18T04:28:20;3.05;;;1.10;;
33108;SDS011;19481;51.118;6.940;2023-09-18T04:33:23;1.25;;;1.10;;
33108;SDS011;19481;51.118;6.940;2023-09-18T04:38:25;1.10;;;1.00;;
33108;SDS011;19481;51.118;6.940;2023-09-18T04:43:28;0.80;;;0.80;;
33108;SDS011;19481;51.118;6.940;2023-09-18T04:48:30;3.80;;;1.27;;
33108;SDS011;19481;51.118;6.940;2023-09-18T04:53:32;1.40;;;1.30;;
33108;SDS011;19481;51.118;6.940;2023-09-18T04:58:35;1.58;;;0.98;;
33108;SDS011;19481;51.118;6.940;2023-09-18T05:03:37;0.90;;;0.90;;
33108;SDS011;19481;51.118;6.940;2023-09-18T05:08:39;1.20;;;1.02;;
33108;SDS011;19481;51.118;6.940;2023-09-18T05:13:41;3.30;;;1.40;;
33108;SDS011;19481;51.118;6.940;2023-09-18T05:18:43;1.00;;;0.90;;
33108;SDS011;19481;51.118;6.940;2023-09-18T05:23:45;1.00;;;1.00;;
33108;SDS011;19481;51.118;6.940;2023-09-18T05:28:48;0.98;;;0.90;;
33108;SDS011;19481;51.118;6.940;2023-09-18T05:33:50;1.45;;;1.05;;
33108;SDS011;19481;51.118;6.940;2023-09-18T05:38:52;2.25;;;0.82;;
33108;SDS011;19481;51.118;6.940;2023-09-18T05:43:54;0.95;;;0.82;;
33108;SDS011;19481;51.118;6.940;2023-09-18T05:48:56;1.75;;;1.33;;
33108;SDS011;19481;51.118;6.940;2023-09-18T05:54:00;1.05;;;1.00;;
33108;SDS011;19481;51.118;6.940;2023-09-18T05:59:04;0.98;;;0.57;;
33108;SDS011;19481;51.118;6.940;2023-09-18T06:04:05;0.93;;;0.85;;
33108;SDS011;19481;51.118;6.940;2023-09-18T06:09:07;0.93;;;0.77;;
33108;SDS011;19481;51.118;6.940;2023-09-18T06:14:11;1.20;;;0.80;;
33108;SDS011;19481;51.118;6.940;2023-09-18T06:19:12;1.10;;;1.00;;
33108;SDS011;19481;51.118;6.940;2023-09-18T06:24:14;1.80;;;1.20;;
33108;SDS011;19481;51.118;6.940;2023-09-18T06:29:17;2.17;;;0.93;;
33108;SDS011;19481;51.118;6.940;2023-09-18T06:34:19;0.73;;;0.73;;
33108;SDS011;19481;51.118;6.940;2023-09-18T06:39:20;0.63;;;0.63;;
33108;SDS011;19481;51.118;6.940;2023-09-18T06:44:25;2.22;;;0.70;;
33108;SDS011;19481;51.118;6.940;2023-09-18T06:49:26;1.65;;;0.70;;
33108;SDS011;19481;51.118;6.940;2023-09-18T06:54:28;0.80;;;0.80;;
33108;SDS011;19481;51.118;6.940;2023-09-18T06:59:31;1.25;;;0.57;;
33108;SDS011;19481;51.118;6.940;2023-09-18T07:04:33;0.47;;;0.47;;
33108;SDS011;19481;51.118;6.940;2023-09-18T07:09:35;0.88;;;0.70;;
33108;SDS011;19481;51.118;6.940;2023-09-18T07:14:38;2.22;;;0.85;;
33108;SDS011;19481;51.118;6.940;2023-09-18T07:19:40;0.75;;;0.60;;
33108;SDS011;19481;51.118;6.940;2023-09-18T07:24:41;0.60;;;0.60;;
33108;SDS011;19481;51.118;6.940;2023-09-18T07:29:46;0.55;;;0.55;;
33108;SDS011;19481;51.118;6.940;2023-09-18T07:34:49;0.63;;;0.60;;
33108;SDS011;19481;51.118;6.940;2023-09-18T07:39:51;4.88;;;0.60;;
33108;SDS011;19481;51.118;6.940;2023-09-18T07:44:54;0.77;;;0.77;;
33108;SDS011;19481;51.118;6.940;2023-09-18T07:49:56;0.95;;;0.60;;
33108;SDS011;19481;51.118;6.940;2023-09-18T07:54:58;1.17;;;0.57;;
33108;SDS011;19481;51.118;6.940;2023-09-18T08:00:01;2.25;;;0.60;;
33108;SDS011;19481;51.118;6.940;2023-09-18T08:10:09;0.40;;;0.40;;
33108;SDS011;19481;51.118;6.940;2023-09-18T08:15:14;0.40;;;0.40;;
33108;SDS011;19481;51.118;6.940;2023-09-18T08:20:15;0.40;;;0.40;;
33108;SDS011;19481;51.118;6.940;2023-09-18T08:25:17;0.50;;;0.50;;
33108;SDS011;19481;51.118;6.940;2023-09-18T08:30:20;0.57;;;0.50;;
33108;SDS011;19481;51.118;6.940;2023-09-18T08:35:22;0.50;;;0.50;;
33108;SDS011;19481;51.118;6.940;2023-09-18T08:40:28;0.57;;;0.30;;
33108;SDS011;19481;51.118;6.940;2023-09-18T08:45:34;0.73;;;0.57;;
33108;SDS011;19481;51.118;6.940;2023-09-18T08:50:38;0.52;;;0.50;;
33108;SDS011;19481;51.118;6.940;2023-09-18T08:55:41;0.82;;;0.40;;
33108;SDS011;19481;51.118;6.940;2023-09-18T09:00:45;0.47;;;0.47;;
33108;SDS011;19481;51.118;6.940;2023-09-18T09:05:46;0.63;;;0.60;;
33108;SDS011;19481;51.118;6.940;2023-09-18T09:10:48;0.43;;;0.43;;
33108;SDS011;19481;51.118;6.940;2023-09-18T09:15:52;0.60;;;0.35;;
33108;SDS011;19481;51.118;6.940;2023-09-18T09:20:56;2.55;;;0.43;;
33108;SDS011;19481;51.118;6.940;2023-09-18T09:26:11;0.40;;;0.40;;
33108;SDS011;19481;51.118;6.940;2023-09-18T09:31:23;0.43;;;0.43;;
33108;SDS011;19481;51.118;6.940;2023-09-18T09:36:27;0.77;;;0.50;;
33108;SDS011;19481;51.118;6.940;2023-09-18T09:41:29;0.40;;;0.40;;
33108;SDS011;19481;51.118;6.940;2023-09-18T09:46:35;0.63;;;0.50;;
33108;SDS011;19481;51.118;6.940;2023-09-18T09:51:36;0.50;;;0.50;;
33108;SDS011;19481;51.118;6.940;2023-09-18T09:56:40;0.40;;;0.40;;
33108;SDS011;19481;51.118;6.940;2023-09-18T10:01:44;0.30;;;0.30;;
33108;SDS011;19481;51.118;6.940;2023-09-18T10:06:50;0.45;;;0.40;;
33108;SDS011;19481;51.118;6.940;2023-09-18T10:11:53;0.30;;;0.30;;
33108;SDS011;19481;51.118;6.940;2023-09-18T10:16:59;0.40;;;0.40;;
33108;SDS011;19481;51.118;6.940;2023-09-18T10:22:17;0.55;;;0.43;;
33108;SDS011;19481;51.118;6.940;2023-09-18T10:27:26;0.65;;;0.50;;
33108;SDS011;19481;51.118;6.940;2023-09-18T10:32:29;0.40;;;0.40;;
33108;SDS011;19481;51.118;6.940;2023-09-18T10:37:32;0.40;;;0.40;;
33108;SDS011;19481;51.118;6.940;2023-09-18T10:42:35;0.40;;;0.40;;
33108;SDS011;19481;51.118;6.940;2023-09-18T10:47:42;0.30;;;0.30;;
33108;SDS011;19481;51.118;6.940;2023-09-18T10:52:46;0.30;;;0.30;;
33108;SDS011;19481;51.118;6.940;2023-09-18T10:57:51;0.40;;;0.40;;
33108;SDS011;19481;51.118;6.940;2023-09-18T11:03:10;0.30;;;0.30;;
33108;SDS011;19481;51.118;6.940;2023-09-18T11:13:36;1.15;;;0.35;;
33108;SDS011;19481;51.118;6.940;2023-09-18T11:18:42;0.35;;;0.35;;
33108;SDS011;19481;51.118;6.940;2023-09-18T11:23:44;0.35;;;0.35;;
33108;SDS011;19481;51.118;6.940;2023-09-18T11:28:45;0.35;;;0.35;;
33108;SDS011;19481;51.118;6.940;2023-09-18T11:33:51;0.60;;;0.30;;
33108;SDS011;19481;51.118;6.940;2023-09-18T11:38:54;0.20;;;0.20;;
33108;SDS011;19481;51.118;6.940;2023-09-18T11:49:38;0.40;;;0.40;;
33108;SDS011;19481;51.118;6.940;2023-09-18T11:54:43;0.40;;;0.40;;
33108;SDS011;19481;51.118;6.940;2023-09-18T11:59:46;0.35;;;0.30;;
33108;SDS011;19481;51.118;6.940;2023-09-18T12:04:50;0.40;;;0.40;;
33108;SDS011;19481;51.118;6.940;2023-09-18T12:09:51;0.35;;;0.35;;
33108;SDS011;19481;51.118;6.940;2023-09-18T12:14:54;1.58;;;0.40;;
33108;SDS011;19481;51.118;6.940;2023-09-18T12:19:57;0.50;;;0.50;;
33108;SDS011;19481;51.118;6.940;2023-09-18T12:25:08;0.60;;;0.60;;
33108;SDS011;19481;51.118;6.940;2023-09-18T12:30:11;1.05;;;0.43;;
33108;SDS011;19481;51.118;6.940;2023-09-18T12:35:16;0.30;;;0.30;;
33108;SDS011;19481;51.118;6.940;2023-09-18T12:40:22;0.30;;;0.30;;
33108;SDS011;19481;51.118;6.940;2023-09-18T12:45:25;0.32;;;0.32;;
33108;SDS011;19481;51.118;6.940;2023-09-18T12:50:29;0.30;;;0.30;;
33108;SDS011;19481;51.118;6.940;2023-09-18T12:55:30;0.40;;;0.40;;
33108;SDS011;19481;51.118;6.940;2023-09-18T13:00:33;0.35;;;0.35;;
33108;SDS011;19481;51.118;6.940;2023-09-18T13:05:36;0.40;;;0.40;;
33108;SDS011;19481;51.118;6.940;2023-09-18T13:10:42;0.35;;;0.30;;
33108;SDS011;19481;51.118;6.940;2023-09-18T13:15:44;0.40;;;0.40;;
33108;SDS011;19481;51.118;6.940;2023-09-18T13:20:50;0.50;;;0.50;;
33108;SDS011;19481;51.118;6.940;2023-09-18T13:25:58;0.30;;;0.30;;
33108;SDS011;19481;51.118;6.940;2023-09-18T13:31:00;0.30;;;0.30;;
33108;SDS011;19481;51.118;6.940;2023-09-18T13:36:06;0.52;;;0.38;;
33108;SDS011;19481;51.118;6.940;2023-09-18T13:41:07;0.40;;;0.40;;
33108;SDS011;19481;51.118;6.940;2023-09-18T13:46:09;0.40;;;0.40;;
33108;SDS011;19481;51.118;6.940;2023-09-18T13:51:12;1.05;;;0.43;;
33108;SDS011;19481;51.118;6.940;2023-09-18T13:56:14;0.40;;;0.40;;
33108;SDS011;19481;51.118;6.940;2023-09-18T14:01:15;1.13;;;0.57;;
33108;SDS011;19481;51.118;6.940;2023-09-18T14:06:18;0.30;;;0.30;;
33108;SDS011;19481;51.118;6.940;2023-09-18T14:11:20;0.60;;;0.40;;
33108;SDS011;19481;51.118;6.940;2023-09-18T14:16:22;0.30;;;0.30;;
33108;SDS011;19481;51.118;6.940;2023-09-18T14:21:26;0.30;;;0.30;;
33108;SDS011;19481;51.118;6.940;2023-09-18T14:26:35;0.40;;;0.40;;
33108;SDS011;19481;51.118;6.940;2023-09-18T14:31:40;0.85;;;0.47;;
33108;SDS011;19481;51.118;6.940;2023-09-18T14:36:43;0.47;;;0.47;;
33108;SDS011;19481;51.118;6.940;2023-09-18T14:41:45;0.30;;;0.30;;
33108;SDS011;19481;51.118;6.940;2023-09-18T14:46:47;0.30;;;0.30;;
33108;SDS011;19481;51.118;6.940;2023-09-18T14:51:50;0.40;;;0.40;;
33108;SDS011;19481;51.118;6.940;2023-09-18T14:56:54;0.65;;;0.50;;
33108;SDS011;19481;51.118;6.940;2023-09-18T15:01:55;0.30;;;0.30;;
33108;SDS011;19481;51.118;6.940;2023-09-18T15:06:59;0.30;;;0.30;;
33108;SDS011;19481;51.118;6.940;2023-09-18T15:12:01;0.32;;;0.32;;
33108;SDS011;19481;51.118;6.940;2023-09-18T15:17:03;0.30;;;0.30;;
33108;SDS011;19481;51.118;6.940;2023-09-18T15:22:06;0.50;;;0.50;;
33108;SDS011;19481;51.118;6.940;2023-09-18T15:27:08;0.30;;;0.30;;
33108;SDS011;19481;51.118;6.940;2023-09-18T15:32:09;0.40;;;0.40;;
33108;SDS011;19481;51.118;6.940;2023-09-18T15:37:12;0.45;;;0.45;;
33108;SDS011;19481;51.118;6.940;2023-09-18T15:42:16;0.50;;;0.50;;
33108;SDS011;19481;51.118;6.940;2023-09-18T15:47:17;0.40;;;0.35;;
33108;SDS011;19481;51.118;6.940;2023-09-18T15:52:20;0.40;;;0.40;;
33108;SDS011;19481;51.118;6.940;2023-09-18T15:57:22;0.30;;;0.30;;
33108;SDS011;19481;51.118;6.940;2023-09-18T16:02:23;0.20;;;0.20;;
33108;SDS011;19481;51.118;6.940;2023-09-18T16:07:26;0.40;;;0.40;;
33108;SDS011;19481;51.118;6.940;2023-09-18T16:12:28;0.65;;;0.50;;
33108;SDS011;19481;51.118;6.940;2023-09-18T16:17:30;0.65;;;0.50;;
33108;SDS011;19481;51.118;6.940;2023-09-18T16:22:33;0.52;;;0.45;;
33108;SDS011;19481;51.118;6.940;2023-09-18T16:27:35;0.40;;;0.40;;
33108;SDS011;19481;51.118;6.940;2023-09-18T16:32:37;0.82;;;0.40;;
33108;SDS011;19481;51.118;6.940;2023-09-18T16:37:40;0.85;;;0.40;;
33108;SDS011;19481;51.118;6.940;2023-09-18T16:42:45;0.50;;;0.40;;
33108;SDS011;19481;51.118;6.940;2023-09-18T16:47:47;0.40;;;0.40;;
33108;SDS011;19481;51.118;6.940;2023-09-18T16:52:50;0.68;;;0.47;;
33108;SDS011;19481;51.118;6.940;2023-09-18T16:57:51;0.57;;;0.55;;
33108;SDS011;19481;51.118;6.940;2023-09-18T17:02:53;1.45;;;0.60;;
33108;SDS011;19481;51.118;6.940;2023-09-18T17:07:56;0.35;;;0.35;;
33108;SDS011;19481;51.118;6.940;2023-09-18T17:12:58;0.40;;;0.40;;
33108;SDS011;19481;51.118;6.940;2023-09-18T17:18:00;0.85;;;0.50;;
33108;SDS011;19481;51.118;6.940;2023-09-18T17:23:05;0.50;;;0.50;;
33108;SDS011;19481;51.118;6.940;2023-09-18T17:28:07;0.63;;;0.63;;
33108;SDS011;19481;51.118;6.940;2023-09-18T17:33:09;0.80;;;0.43;;
33108;SDS011;19481;51.118;6.940;2023-09-18T17:38:13;0.43;;;0.43;;
33108;SDS011;19481;51.118;6.940;2023-09-18T17:43:15;0.30;;;0.30;;
33108;SDS011;19481;51.118;6.940;2023-09-18T17:48:17;0.60;;;0.57;;
33108;SDS011;19481;51.118;6.940;2023-09-18T17:53:20;0.40;;;0.40;;
33108;SDS011;19481;51.118;6.940;2023-09-18T17:58:22;0.40;;;0.40;;
33108;SDS011;19481;51.118;6.940;2023-09-18T18:03:24;0.45;;;0.32;;
33108;SDS011;19481;51.118;6.940;2023-09-18T18:08:27;0.30;;;0.30;;
33108;SDS011;19481;51.118;6.940;2023-09-18T18:13:28;0.40;;;0.40;;
33108;SDS011;19481;51.118;6.940;2023-09-18T18:18:31;0.40;;;0.40;;
33108;SDS011;19481;51.118;6.940;2023-09-18T18:23:34;1.27;;;0.50;;
33108;SDS011;19481;51.118;6.940;2023-09-18T18:28:36;2.65;;;0.50;;
33108;SDS011;19481;51.118;6.940;2023-09-18T18:33:38;0.40;;;0.40;;
33108;SDS011;19481;51.118;6.940;2023-09-18T18:38:42;0.50;;;0.50;;
33108;SDS011;19481;51.118;6.940;2023-09-18T18:43:43;0.60;;;0.60;;
33108;SDS011;19481;51.118;6.940;2023-09-18T18:48:46;0.60;;;0.60;;
33108;SDS011;19481;51.118;6.940;2023-09-18T18:53:48;0.73;;;0.63;;
33108;SDS011;19481;51.118;6.940;2023-09-18T18:58:50;0.73;;;0.73;;
33108;SDS011;19481;51.118;6.940;2023-09-18T19:03:52;0.60;;;0.60;;
33108;SDS011;19481;51.118;6.940;2023-09-18T19:08:57;0.60;;;0.60;;
33108;SDS011;19481;51.118;6.940;2023-09-18T19:13:59;0.50;;;0.50;;
33108;SDS011;19481;51.118;6.940;2023-09-18T19:19:00;0.50;;;0.50;;
33108;SDS011;19481;51.118;6.940;2023-09-18T19:24:05;0.70;;;0.70;;
33108;SDS011;19481;51.118;6.940;2023-09-18T19:29:06;1.38;;;0.88;;
33108;SDS011;19481;51.118;6.940;2023-09-18T19:34:08;0.80;;;0.65;;
33108;SDS011;19481;51.118;6.940;2023-09-18T19:39:16;1.85;;;0.60;;
33108;SDS011;19481;51.118;6.940;2023-09-18T19:44:18;0.70;;;0.70;;
33108;SDS011;19481;51.118;6.940;2023-09-18T19:49:19;0.50;;;0.50;;
33108;SDS011;19481;51.118;6.940;2023-09-18T19:54:22;0.70;;;0.60;;
33108;SDS011;19481;51.118;6.940;2023-09-18T19:59:24;3.38;;;0.57;;
33108;SDS011;19481;51.118;6.940;2023-09-18T20:04:25;0.63;;;0.50;;
33108;SDS011;19481;51.118;6.940;2023-09-18T20:09:30;0.73;;;0.60;;
33108;SDS011;19481;51.118;6.940;2023-09-18T20:14:32;0.60;;;0.60;;
33108;SDS011;19481;51.118;6.940;2023-09-18T20:19:34;0.45;;;0.45;;
33108;SDS011;19481;51.118;6.940;2023-09-18T20:24:37;1.88;;;0.50;;
33108;SDS011;19481;51.118;6.940;2023-09-18T20:29:38;0.50;;;0.50;;
33108;SDS011;19481;51.118;6.940;2023-09-18T20:34:40;0.50;;;0.50;;
33108;SDS011;19481;51.118;6.940;2023-09-18T20:39:43;0.52;;;0.52;;
33108;SDS011;19481;51.118;6.940;2023-09-18T20:44:44;0.50;;;0.50;;
33108;SDS011;19481;51.118;6.940;2023-09-18T20:49:46;0.40;;;0.40;;
33108;SDS011;19481;51.118;6.940;2023-09-18T20:54:50;0.47;;;0.47;;
33108;SDS011;19481;51.118;6.940;2023-09-18T20:59:52;0.82;;;0.50;;
33108;SDS011;19481;51.118;6.940;2023-09-18T21:04:53;0.50;;;0.50;;
33108;SDS011;19481;51.118;6.940;2023-09-18T21:09:56;0.60;;;0.60;;
33108;SDS011;19481;51.118;6.940;2023-09-18T21:14:58;0.68;;;0.50;;
33108;SDS011;19481;51.118;6.940;2023-09-18T21:20:00;0.50;;;0.50;;
33108;SDS011;19481;51.118;6.940;2023-09-18T21:25:06;0.52;;;0.52;;
33108;SDS011;19481;51.118;6.940;2023-09-18T21:30:09;0.75;;;0.70;;
33108;SDS011;19481;51.118;6.940;2023-09-18T21:35:11;0.60;;;0.60;;
33108;SDS011;19481;51.118;6.940;2023-09-18T21:40:14;0.60;;;0.60;;
33108;SDS011;19481;51.118;6.940;2023-09-18T21:45:16;0.60;;;0.60;;
33108;SDS011;19481;51.118;6.940;2023-09-18T21:50:17;0.50;;;0.50;;
33108;SDS011;19481;51.118;6.940;2023-09-18T21:55:21;1.33;;;0.70;;
33108;SDS011;19481;51.118;6.940;2023-09-18T22:00:23;0.52;;;0.52;;
33108;SDS011;19481;51.118;6.940;2023-09-18T22:05:27;0.60;;;0.60;;
33108;SDS011;19481;51.118;6.940;2023-09-18T22:10:30;0.55;;;0.55;;
33108;SDS011;19481;51.118;6.940;2023-09-18T22:15:33;0.60;;;0.60;;
33108;SDS011;19481;51.118;6.940;2023-09-18T22:20:34;0.75;;;0.70;;
33108;SDS011;19481;51.118;6.940;2023-09-18T22:25:39;0.85;;;0.50;;
33108;SDS011;19481;51.118;6.940;2023-09-18T22:30:40;0.60;;;0.60;;
33108;SDS011;19481;51.118;6.940;2023-09-18T22:35:44;0.60;;;0.60;;
33108;SDS011;19481;51.118;6.940;2023-09-18T22:57:09;0.57;;;0.57;;
33108;SDS011;19481;51.118;6.940;2023-09-18T23:02:14;0.52;;;0.52;;
33108;SDS011;19481;51.118;6.940;2023-09-18T23:07:16;0.50;;;0.50;;
33108;SDS011;19481;51.118;6.940;2023-09-18T23:12:19;0.40;;;0.40;;
33108;SDS011;19481;51.118;6.940;2023-09-18T23:17:21;1.83;;;0.68;;
33108;SDS011;19481;51.118;6.940;2023-09-18T23:22:23;0.50;;;0.50;;
33108;SDS011;19481;51.118;6.940;2023-09-18T23:27:30;0.65;;;0.60;;
33108;SDS011;19481;51.118;6.940;2023-09-18T23:32:31;0.63;;;0.63;;
33108;SDS011;19481;51.118;6.940;2023-09-18T23:37:33;0.98;;;0.60;;
33108;SDS011;19481;51.118;6.940;2023-09-18T23:42:37;0.50;;;0.50;;
33108;SDS011;19481;51.118;6.940;2023-09-18T23:47:40;0.50;;;0.50;;
33108;SDS011;19481;51.118;6.940;2023-09-18T23:52:44;1.65;;;0.70;;
33108;SDS011;19481;51.118;6.940;2023-09-18T23:57:52;0.60;;;0.60;;
